Time;durP1;ratioP1;P1;durP2;ratioP2;P2;SDS_P1;SDS_P2;PMS_P1;PMS_P2;Temp;Humidity;BMP_temperature;BMP_pressure;BME280_temperature;BME280_humidity;BME280_pressure;Samples;Min_cycle;Max_cycle;Signal;HPM_P1;HPM_P2
2023/10/06 00:02:56;;;;;;;4.20;2.00;;;19.50;66.20;;;;;;5064398;28;20048;-48
2023/10/06 00:05:23;;;;;;;5.13;2.40;;;19.50;66.10;;;;;;5061793;28;20037;-51
2023/10/06 00:07:50;;;;;;;6.35;2.38;;;19.50;66.10;;;;;;5062186;28;20025;-51
2023/10/06 00:10:20;;;;;;;5.65;2.08;;;19.40;66.10;;;;;;5062330;28;20033;-48
2023/10/06 00:12:48;;;;;;;4.88;2.50;;;19.40;66.10;;;;;;5056287;28;20033;-53
2023/10/06 00:15:26;;;;;;;4.97;1.95;;;19.40;66.20;;;;;;5065274;28;20098;-49
2023/10/06 00:17:55;;;;;;;3.00;2.15;;;19.40;66.20;;;;;;5061516;28;20485;-50
2023/10/06 00:20:26;;;;;;;3.55;1.65;;;19.40;66.20;;;;;;5062245;28;20090;-51
2023/10/06 00:22:55;;;;;;;5.40;2.35;;;19.40;66.20;;;;;;5060076;28;20081;-48
2023/10/06 00:25:24;;;;;;;7.72;2.70;;;19.40;66.10;;;;;;5061165;28;20058;-50
2023/10/06 00:27:49;;;;;;;4.15;2.08;;;19.50;66.40;;;;;;5065607;28;20031;-48
2023/10/06 00:30:19;;;;;;;12.73;2.83;;;19.50;66.30;;;;;;5078942;28;20237;-51
2023/10/06 00:32:46;;;;;;;15.35;3.83;;;19.60;66.20;;;;;;5062795;28;20545;-52
2023/10/06 00:35:14;;;;;;;10.57;2.60;;;19.60;66.40;;;;;;5061902;28;20086;-50
2023/10/06 00:37:40;;;;;;;10.27;2.60;;;19.60;66.40;;;;;;5063619;28;20438;-49
2023/10/06 00:40:19;;;;;;;11.43;2.63;;;19.60;66.30;;;;;;5059412;28;20368;-48
2023/10/06 00:42:50;;;;;;;6.30;2.17;;;19.60;66.10;;;;;;5061629;28;20032;-47
2023/10/06 00:45:16;;;;;;;5.90;2.53;;;19.60;66.30;;;;;;5062948;28;20028;-48
2023/10/06 00:47:41;;;;;;;4.45;2.00;;;19.60;66.30;;;;;;5062065;28;20032;-47
2023/10/06 00:50:11;;;;;;;4.85;1.88;;;19.60;66.20;;;;;;5062221;28;20021;-49
2023/10/06 00:52:39;;;;;;;3.83;2.00;;;19.60;66.20;;;;;;5055328;28;20569;-49
2023/10/06 00:55:10;;;;;;;6.60;2.97;;;19.50;66.30;;;;;;5055651;28;20039;-51
2023/10/06 00:57:35;;;;;;;4.95;2.03;;;19.60;66.30;;;;;;5047223;28;20029;-58
2023/10/06 01:00:01;;;;;;;3.75;2.22;;;19.60;66.10;;;;;;5067522;28;20086;-49
2023/10/06 01:02:26;;;;;;;3.55;2.42;;;19.50;66.10;;;;;;5061611;28;20024;-51
2023/10/06 01:04:52;;;;;;;3.67;2.33;;;19.50;66.10;;;;;;5062238;28;20047;-48
2023/10/06 01:07:18;;;;;;;4.05;2.38;;;19.50;66.10;;;;;;5055984;28;20024;-48
2023/10/06 01:09:57;;;;;;;6.13;2.13;;;19.50;66.10;;;;;;5048848;28;20428;-49
2023/10/06 01:12:27;;;;;;;4.22;1.60;;;19.50;66.10;;;;;;5035109;28;20394;-48
2023/10/06 01:15:05;;;;;;;4.85;2.13;;;19.50;66.10;;;;;;5054541;28;20106;-51
2023/10/06 01:17:31;;;;;;;3.67;2.17;;;19.50;66.10;;;;;;5062861;28;20547;-47
2023/10/06 01:19:59;;;;;;;5.55;2.25;;;19.50;66.10;;;;;;5062007;28;20044;-48
2023/10/06 01:22:27;;;;;;;4.47;2.20;;;19.50;66.10;;;;;;5057578;28;20520;-49
2023/10/06 01:24:53;;;;;;;2.65;2.28;;;19.50;66.10;;;;;;5056690;28;20123;-48
2023/10/06 01:27:19;;;;;;;3.55;1.98;;;19.50;66.10;;;;;;5065198;28;20159;-49
2023/10/06 01:29:45;;;;;;;5.10;2.25;;;19.50;66.10;;;;;;5059201;28;20028;-49
2023/10/06 01:32:11;;;;;;;4.55;1.90;;;19.50;66.10;;;;;;5059350;28;20040;-49
2023/10/06 01:34:38;;;;;;;2.83;2.33;;;19.50;66.20;;;;;;5064022;28;20047;-50
2023/10/06 01:37:08;;;;;;;4.20;2.03;;;19.50;66.10;;;;;;5073385;28;20063;-51
2023/10/06 01:39:35;;;;;;;10.52;2.20;;;19.50;66.10;;;;;;5051109;28;20219;-48
2023/10/06 01:42:04;;;;;;;5.18;2.50;;;19.50;66.40;;;;;;5057327;28;20065;-49
2023/10/06 01:44:31;;;;;;;4.63;2.15;;;19.50;66.40;;;;;;5061442;28;20043;-52
2023/10/06 01:46:57;;;;;;;3.38;2.17;;;19.50;66.40;;;;;;5059504;28;20064;-48
2023/10/06 01:49:23;;;;;;;5.22;2.30;;;19.50;66.40;;;;;;5058390;28;20044;-49
2023/10/06 01:51:52;;;;;;;4.32;2.33;;;19.50;66.30;;;;;;5054327;28;20029;-49
2023/10/06 01:54:20;;;;;;;4.72;2.05;;;19.50;66.50;;;;;;5058811;28;20056;-49
2023/10/06 01:56:48;;;;;;;5.63;2.20;;;19.50;66.50;;;;;;5065691;28;20025;-49
2023/10/06 01:59:14;;;;;;;6.28;2.30;;;19.50;66.50;;;;;;5057243;28;20185;-52
2023/10/06 02:01:41;;;;;;;3.40;2.00;;;19.50;66.60;;;;;;5061754;28;20048;-47
2023/10/06 02:04:10;;;;;;;3.22;1.73;;;19.50;66.60;;;;;;5075915;28;20036;-51
2023/10/06 02:06:38;;;;;;;5.00;2.30;;;19.50;66.60;;;;;;5063714;28;20054;-48
2023/10/06 02:09:18;;;;;;;4.97;1.65;;;19.50;66.40;;;;;;5057298;28;20048;-48
2023/10/06 02:11:49;;;;;;;4.47;2.67;;;19.50;67.00;;;;;;5055189;28;20056;-49
2023/10/06 02:14:18;;;;;;;4.55;2.10;;;19.50;66.50;;;;;;5059733;28;20033;-50
2023/10/06 02:16:44;;;;;;;3.30;1.90;;;19.50;66.60;;;;;;5058137;28;20056;-51
2023/10/06 02:19:16;;;;;;;3.03;2.00;;;19.50;66.50;;;;;;5054510;28;20024;-48
2023/10/06 02:21:51;;;;;;;4.90;2.00;;;19.50;66.60;;;;;;5059695;28;20495;-47
2023/10/06 02:24:17;;;;;;;5.75;2.25;;;19.50;66.60;;;;;;5058440;28;20039;-50
2023/10/06 02:27:00;;;;;;;4.57;1.83;;;19.50;67.40;;;;;;5062445;28;20452;-49
2023/10/06 02:29:26;;;;;;;3.67;2.25;;;19.50;66.70;;;;;;5061237;28;20094;-49
2023/10/06 02:32:05;;;;;;;4.20;2.40;;;19.50;66.70;;;;;;5063341;28;20622;-48
2023/10/06 02:34:35;;;;;;;4.65;2.47;;;19.50;67.00;;;;;;5063287;28;20036;-47
2023/10/06 02:37:04;;;;;;;4.57;2.28;;;19.50;66.80;;;;;;5063038;28;20510;-48
2023/10/06 02:39:33;;;;;;;5.13;2.17;;;19.50;66.70;;;;;;5064818;28;20031;-47
2023/10/06 02:42:07;;;;;;;4.50;2.35;;;19.50;66.70;;;;;;5059835;28;20033;-48
2023/10/06 02:44:37;;;;;;;3.80;1.83;;;19.50;66.80;;;;;;5044775;28;20053;-49
2023/10/06 02:47:04;;;;;;;2.88;1.88;;;19.50;66.70;;;;;;5042027;28;20099;-47
2023/10/06 02:49:35;;;;;;;6.75;2.65;;;19.50;66.60;;;;;;5045896;28;20144;-49
2023/10/06 02:52:13;;;;;;;5.28;2.40;;;19.50;66.60;;;;;;5044473;28;20102;-48
2023/10/06 02:54:45;;;;;;;5.07;2.33;;;19.50;66.50;;;;;;5042787;28;20057;-48
2023/10/06 02:57:11;;;;;;;2.95;1.73;;;19.50;66.40;;;;;;5063039;28;20693;-52
2023/10/06 02:59:36;;;;;;;4.53;2.33;;;19.50;66.20;;;;;;5064035;28;20032;-58
2023/10/06 03:02:15;;;;;;;3.30;1.80;;;19.50;66.50;;;;;;5068482;28;20183;-49
2023/10/06 03:04:43;;;;;;;4.07;2.13;;;19.50;66.30;;;;;;5063992;28;20443;-50
2023/10/06 03:07:18;;;;;;;3.88;2.15;;;19.50;66.20;;;;;;5063508;28;20744;-48
2023/10/06 03:09:47;;;;;;;13.15;2.92;;;19.50;66.40;;;;;;5061318;28;20025;-52
2023/10/06 03:14:54;;;;;;;12.65;2.42;;;19.50;66.60;;;;;;5063627;28;20043;-49
2023/10/06 03:17:20;;;;;;;7.40;2.53;;;19.50;66.70;;;;;;5059354;28;20047;-48
2023/10/06 03:19:56;;;;;;;9.27;2.50;;;19.50;66.70;;;;;;5064704;28;20029;-48
2023/10/06 03:22:25;;;;;;;14.30;2.60;;;19.50;67.00;;;;;;5063023;28;20043;-49
2023/10/06 03:24:58;;;;;;;5.68;2.13;;;19.60;67.00;;;;;;5064432;28;20032;-48
2023/10/06 03:27:24;;;;;;;12.63;3.22;;;19.50;66.80;;;;;;5062193;28;20218;-48
2023/10/06 03:32:32;;;;;;;8.57;2.28;;;19.50;66.90;;;;;;5063279;28;20066;-47
2023/10/06 03:35:14;;;;;;;8.18;2.72;;;19.50;66.90;;;;;;5057099;28;20435;-47
2023/10/06 03:37:51;;;;;;;9.35;2.75;;;19.50;66.70;;;;;;5056605;28;20509;-47
2023/10/06 03:40:35;;;;;;;5.32;2.50;;;19.50;66.70;;;;;;5059902;28;20167;-48
2023/10/06 03:43:05;;;;;;;9.27;2.45;;;19.50;66.60;;;;;;5062078;28;20089;-52
2023/10/06 03:45:34;;;;;;;6.07;2.17;;;19.50;66.60;;;;;;5065012;28;20124;-52
2023/10/06 03:48:13;;;;;;;5.25;2.13;;;19.50;66.60;;;;;;5058945;28;20048;-49
2023/10/06 03:50:44;;;;;;;5.68;2.28;;;19.50;66.80;;;;;;5048980;28;20037;-48
2023/10/06 03:53:12;;;;;;;4.82;2.20;;;19.50;66.60;;;;;;5058870;28;20037;-51
2023/10/06 03:55:42;;;;;;;10.10;2.35;;;19.50;66.50;;;;;;5063287;28;20041;-49
2023/10/06 03:58:11;;;;;;;9.07;2.88;;;19.50;66.80;;;;;;5064154;28;20032;-50
2023/10/06 04:00:41;;;;;;;11.73;2.60;;;19.50;66.80;;;;;;5064868;28;20028;-47
2023/10/06 04:03:13;;;;;;;7.10;2.42;;;19.50;66.80;;;;;;5060921;28;20632;-48
2023/10/06 04:05:50;;;;;;;9.32;2.55;;;19.50;66.90;;;;;;5058039;28;20045;-50
2023/10/06 04:08:19;;;;;;;4.72;2.47;;;19.50;66.80;;;;;;5058490;28;20040;-49
2023/10/06 04:10:48;;;;;;;4.22;2.13;;;19.50;66.80;;;;;;5063710;28;20024;-47
2023/10/06 04:13:17;;;;;;;6.20;2.60;;;19.50;66.70;;;;;;5063923;28;20033;-50
2023/10/06 04:15:46;;;;;;;3.90;2.10;;;19.50;66.70;;;;;;5058138;28;20071;-49
2023/10/06 04:18:11;;;;;;;3.70;2.13;;;19.50;66.60;;;;;;5061233;28;20041;-51
2023/10/06 04:20:38;;;;;;;4.75;1.73;;;19.50;66.60;;;;;;5065610;28;20577;-48
2023/10/06 04:23:04;;;;;;;5.47;2.60;;;19.50;66.60;;;;;;5063446;28;20111;-51
2023/10/06 04:25:31;;;;;;;3.75;2.20;;;19.50;66.40;;;;;;5059126;28;20916;-50
2023/10/06 04:27:57;;;;;;;5.57;2.45;;;19.50;66.50;;;;;;5079305;28;20024;-47
2023/10/06 04:30:25;;;;;;;4.47;2.03;;;19.40;66.30;;;;;;5073234;28;20082;-50
2023/10/06 04:32:51;;;;;;;3.22;2.20;;;19.50;66.40;;;;;;5059788;28;20444;-51
2023/10/06 04:35:21;;;;;;;3.85;1.73;;;19.40;66.20;;;;;;5042109;28;20032;-46
2023/10/06 04:37:48;;;;;;;4.25;1.85;;;19.40;66.50;;;;;;5060278;28;20082;-52
2023/10/06 04:40:18;;;;;;;6.50;2.03;;;19.50;67.00;;;;;;5061021;28;20481;-50
2023/10/06 04:42:45;;;;;;;5.72;2.03;;;19.50;67.20;;;;;;5061727;28;20032;-51
2023/10/06 04:45:12;;;;;;;6.22;2.17;;;19.50;67.00;;;;;;5065241;28;20090;-50
2023/10/06 04:47:40;;;;;;;7.72;2.45;;;19.50;67.00;;;;;;5058565;28;20094;-49
2023/10/06 04:50:09;;;;;;;5.15;2.00;;;19.50;66.80;;;;;;5060949;28;20265;-48
2023/10/06 04:52:36;;;;;;;3.33;2.08;;;19.50;66.90;;;;;;5056639;28;20043;-54
2023/10/06 04:55:04;;;;;;;5.32;2.05;;;19.40;66.80;;;;;;5046747;28;20029;-47
2023/10/06 04:57:30;;;;;;;5.03;1.73;;;19.40;66.80;;;;;;5047947;28;20494;-48
2023/10/06 04:59:55;;;;;;;7.53;2.05;;;19.40;66.70;;;;;;5062175;28;20036;-47
2023/10/06 05:02:23;;;;;;;3.03;1.70;;;19.50;66.80;;;;;;5055186;28;20044;-49
2023/10/06 05:04:51;;;;;;;10.00;2.60;;;19.50;66.80;;;;;;5056321;28;20035;-52
2023/10/06 05:07:16;;;;;;;9.38;2.13;;;19.50;67.00;;;;;;5055951;28;20498;-51
2023/10/06 05:09:42;;;;;;;8.82;2.70;;;19.50;67.00;;;;;;5058559;28;20039;-49
2023/10/06 05:12:09;;;;;;;6.97;2.38;;;19.40;66.70;;;;;;5053364;28;21273;-56
2023/10/06 05:14:35;;;;;;;6.35;2.10;;;19.50;66.80;;;;;;5064197;28;20033;-49
2023/10/06 05:17:01;;;;;;;8.32;3.05;;;19.50;66.60;;;;;;5059419;28;20036;-48
2023/10/06 05:19:27;;;;;;;4.55;2.60;;;19.50;66.70;;;;;;5060123;28;20040;-49
2023/10/06 05:21:53;;;;;;;6.47;2.05;;;19.50;66.60;;;;;;5059302;28;20028;-54
2023/10/06 05:24:19;;;;;;;6.07;1.92;;;19.40;66.50;;;;;;5061404;28;20036;-52
2023/10/06 05:26:44;;;;;;;5.45;1.95;;;19.50;67.20;;;;;;5064866;28;20532;-47
2023/10/06 05:29:14;;;;;;;3.78;1.85;;;19.40;66.40;;;;;;5064449;28;20115;-50
2023/10/06 05:31:40;;;;;;;4.10;1.95;;;19.40;66.50;;;;;;5064866;28;20037;-49
2023/10/06 05:34:07;;;;;;;4.78;1.67;;;19.40;66.50;;;;;;5060710;28;20040;-49
2023/10/06 05:36:33;;;;;;;26.38;3.30;;;19.40;66.50;;;;;;5058639;28;20032;-47
2023/10/06 05:38:59;;;;;;;3.78;1.92;;;19.40;66.70;;;;;;5066283;28;20386;-49
2023/10/06 05:41:34;;;;;;;10.80;2.47;;;19.50;66.50;;;;;;5067002;28;20181;-52
2023/10/06 05:44:00;;;;;;;7.40;2.00;;;19.50;66.40;;;;;;5062889;28;20028;-49
2023/10/06 05:46:25;;;;;;;5.03;2.05;;;19.50;66.50;;;;;;5057476;28;20033;-48
2023/10/06 05:48:54;;;;;;;6.18;2.10;;;19.50;66.20;;;;;;5065312;28;20041;-49
2023/10/06 05:51:21;;;;;;;7.10;2.00;;;19.40;66.40;;;;;;5059240;28;20021;-52
2023/10/06 05:53:48;;;;;;;4.00;2.30;;;19.40;66.40;;;;;;5062889;28;20032;-53
2023/10/06 05:56:15;;;;;;;5.28;2.40;;;19.50;66.40;;;;;;5061493;28;20040;-48
2023/10/06 05:58:43;;;;;;;6.30;1.83;;;19.50;66.30;;;;;;5062345;28;20043;-47
2023/10/06 06:01:18;;;;;;;5.38;1.67;;;19.50;66.20;;;;;;5051835;28;20125;-50
2023/10/06 06:03:49;;;;;;;4.03;2.20;;;19.50;66.20;;;;;;5062140;28;20144;-47
2023/10/06 06:06:16;;;;;;;3.45;1.67;;;19.50;66.20;;;;;;5063913;28;20025;-49
2023/10/06 06:08:47;;;;;;;3.83;1.98;;;19.50;66.10;;;;;;5062770;28;20125;-48
2023/10/06 06:11:12;;;;;;;8.85;1.88;;;19.50;66.30;;;;;;5063133;28;20087;-48
2023/10/06 06:13:38;;;;;;;9.63;2.50;;;19.50;66.60;;;;;;5062150;28;20052;-51
2023/10/06 06:16:07;;;;;;;13.50;2.58;;;19.50;67.00;;;;;;5057056;28;20561;-50
2023/10/06 06:18:34;;;;;;;4.78;2.17;;;19.60;66.60;;;;;;5060267;28;20695;-47
2023/10/06 06:21:02;;;;;;;7.13;2.72;;;19.50;65.60;;;;;;5059645;28;20047;-49
2023/10/06 06:23:35;;;;;;;6.47;2.50;;;19.50;65.30;;;;;;5061906;28;20112;-48
2023/10/06 06:26:01;;;;;;;6.43;2.28;;;19.40;65.00;;;;;;5062257;28;20048;-48
2023/10/06 06:28:27;;;;;;;9.73;1.95;;;19.40;64.70;;;;;;5047996;28;20423;-49
2023/10/06 06:30:53;;;;;;;5.18;2.15;;;19.40;64.80;;;;;;5066585;28;20421;-50
2023/10/06 06:33:22;;;;;;;5.18;2.05;;;19.30;64.50;;;;;;5057552;28;20044;-49
2023/10/06 06:35:48;;;;;;;6.38;2.65;;;19.30;64.70;;;;;;5063862;28;20605;-47
2023/10/06 06:38:17;;;;;;;4.93;2.08;;;19.30;64.40;;;;;;5062981;28;20024;-48
2023/10/06 06:40:43;;;;;;;3.35;2.10;;;19.20;64.30;;;;;;5062778;28;20489;-47
2023/10/06 06:43:12;;;;;;;5.70;2.25;;;19.20;64.20;;;;;;5063126;28;20086;-55
2023/10/06 06:45:41;;;;;;;4.70;2.30;;;19.20;64.40;;;;;;5063024;28;20028;-49
2023/10/06 06:48:13;;;;;;;4.72;2.22;;;19.20;64.10;;;;;;5059887;28;20387;-50
2023/10/06 06:50:43;;;;;;;2.80;2.03;;;19.20;64.00;;;;;;5045369;28;20505;-54
2023/10/06 06:53:08;;;;;;;3.65;2.30;;;19.20;64.10;;;;;;5058769;28;20394;-52
2023/10/06 06:55:34;;;;;;;3.55;2.00;;;19.20;64.00;;;;;;5051860;28;20091;-53
2023/10/06 06:58:05;;;;;;;3.80;1.70;;;19.20;64.00;;;;;;5053702;28;20078;-49
2023/10/06 07:00:31;;;;;;;3.67;2.00;;;19.20;64.00;;;;;;5058513;28;20765;-50
2023/10/06 07:02:58;;;;;;;3.83;2.03;;;19.20;64.20;;;;;;5058097;28;20107;-51
2023/10/06 07:05:24;;;;;;;4.18;2.20;;;19.20;64.20;;;;;;5065580;28;20025;-46
2023/10/06 07:07:51;;;;;;;4.45;1.83;;;19.20;63.90;;;;;;5061093;28;20036;-48
2023/10/06 07:10:22;;;;;;;4.32;2.15;;;19.20;64.00;;;;;;5066976;28;20586;-46
2023/10/06 07:12:49;;;;;;;3.95;2.22;;;19.20;64.00;;;;;;5058645;28;20063;-48
2023/10/06 07:15:17;;;;;;;4.00;1.98;;;19.20;63.90;;;;;;5065569;28;20101;-53
2023/10/06 07:17:56;;;;;;;3.25;2.15;;;19.10;63.60;;;;;;5061471;28;20490;-50
2023/10/06 07:20:24;;;;;;;5.45;2.00;;;19.20;63.80;;;;;;5077107;28;20043;-48
2023/10/06 07:22:53;;;;;;;2.67;1.98;;;19.10;63.80;;;;;;5064045;28;20487;-51
2023/10/06 07:25:20;;;;;;;3.42;1.83;;;19.10;64.40;;;;;;5047529;28;20036;-48
2023/10/06 07:27:51;;;;;;;5.10;1.80;;;19.20;63.90;;;;;;5042886;28;20040;-52
2023/10/06 07:30:16;;;;;;;5.55;2.38;;;19.20;64.30;;;;;;5061741;28;20032;-49
2023/10/06 07:32:46;;;;;;;3.47;1.73;;;19.30;64.50;;;;;;5064229;28;20035;-47
2023/10/06 07:35:13;;;;;;;3.72;2.10;;;19.20;64.30;;;;;;5063288;28;20482;-50
2023/10/06 07:37:45;;;;;;;5.25;2.00;;;19.20;64.10;;;;;;5064079;28;20029;-55
2023/10/06 07:40:15;;;;;;;5.30;2.17;;;19.20;64.30;;;;;;5063484;28;20040;-55
2023/10/06 07:42:44;;;;;;;3.92;2.15;;;19.20;64.10;;;;;;5060150;28;20694;-47
2023/10/06 07:45:10;;;;;;;4.88;2.42;;;19.20;64.10;;;;;;5063355;28;20139;-50
2023/10/06 07:47:38;;;;;;;5.68;1.90;;;19.20;64.80;;;;;;5058492;28;20036;-52
2023/10/06 07:50:07;;;;;;;2.72;2.10;;;19.20;64.40;;;;;;5060698;28;20724;-49
2023/10/06 07:52:33;;;;;;;3.42;2.33;;;19.20;64.20;;;;;;5061335;28;20096;-50
2023/10/06 07:55:05;;;;;;;5.53;2.45;;;19.20;64.30;;;;;;5068165;28;20132;-47
2023/10/06 07:57:32;;;;;;;3.05;1.92;;;19.30;63.90;;;;;;5035930;28;20040;-46
2023/10/06 08:00:06;;;;;;;4.22;2.10;;;19.30;64.20;;;;;;5056203;28;20042;-53
2023/10/06 08:02:39;;;;;;;3.30;1.85;;;19.20;63.50;;;;;;5058128;28;20024;-50
2023/10/06 08:05:11;;;;;;;4.25;2.10;;;19.10;63.70;;;;;;5056353;28;20021;-50
2023/10/06 08:07:46;;;;;;;4.53;2.40;;;19.20;63.50;;;;;;5057154;28;20047;-50
2023/10/06 08:10:16;;;;;;;4.57;2.47;;;19.10;63.60;;;;;;5043888;28;20079;-46
2023/10/06 08:12:50;;;;;;;6.25;2.47;;;19.10;63.50;;;;;;5045057;28;20052;-47
2023/10/06 08:15:17;;;;;;;6.53;1.88;;;19.10;63.70;;;;;;5055434;28;20040;-49
2023/10/06 08:17:47;;;;;;;4.40;2.47;;;19.10;63.60;;;;;;5055411;28;20112;-53
2023/10/06 08:20:14;;;;;;;4.75;2.00;;;19.10;63.80;;;;;;5058526;28;20094;-52
2023/10/06 08:22:41;;;;;;;4.78;1.83;;;19.10;63.60;;;;;;5055559;28;20270;-52
2023/10/06 08:25:06;;;;;;;6.50;2.00;;;19.10;63.60;;;;;;5053292;28;20408;-49
2023/10/06 08:27:33;;;;;;;4.72;2.58;;;19.10;63.70;;;;;;5057965;28;21185;-46
2023/10/06 08:29:58;;;;;;;5.35;2.25;;;19.10;63.60;;;;;;5066186;28;20029;-49
2023/10/06 08:32:24;;;;;;;3.50;2.05;;;19.10;63.70;;;;;;5039330;28;20028;-48
2023/10/06 08:34:51;;;;;;;3.45;1.90;;;19.10;63.80;;;;;;5060563;28;20040;-48
2023/10/06 08:37:16;;;;;;;3.85;1.92;;;19.10;63.30;;;;;;5064315;28;20056;-51
2023/10/06 08:39:46;;;;;;;3.70;1.90;;;19.10;63.60;;;;;;5059054;28;20642;-48
2023/10/06 08:42:15;;;;;;;3.25;1.80;;;19.10;63.60;;;;;;5059058;28;20388;-49
2023/10/06 08:44:42;;;;;;;3.90;2.20;;;19.10;63.50;;;;;;5053062;28;20029;-48
2023/10/06 08:47:15;;;;;;;3.75;1.85;;;19.10;63.50;;;;;;5055838;28;20035;-50
2023/10/06 08:49:42;;;;;;;4.15;2.25;;;19.10;63.40;;;;;;5059017;28;20127;-47
2023/10/06 08:52:12;;;;;;;3.83;2.35;;;19.10;64.30;;;;;;5058073;28;20025;-48
2023/10/06 08:54:38;;;;;;;5.20;2.10;;;19.00;63.30;;;;;;5047162;28;20044;-51
2023/10/06 08:57:04;;;;;;;6.80;2.70;;;19.10;63.70;;;;;;5057230;28;20025;-49
2023/10/06 08:59:33;;;;;;;6.53;2.30;;;19.00;63.30;;;;;;5057402;28;20135;-49
2023/10/06 09:02:00;;;;;;;3.58;2.28;;;19.10;63.60;;;;;;5058400;28;20028;-50
2023/10/06 09:04:34;;;;;;;4.65;2.17;;;19.00;63.60;;;;;;5063496;28;20082;-51
2023/10/06 09:07:17;;;;;;;4.78;2.22;;;19.00;63.40;;;;;;5060707;28;20024;-51
2023/10/06 09:09:43;;;;;;;4.65;2.00;;;19.10;63.80;;;;;;5054240;28;20132;-50
2023/10/06 09:12:38;;;;;;;5.30;2.38;;;19.10;63.30;;;;;;5058250;28;20490;-48
2023/10/06 09:15:04;;;;;;;4.28;1.90;;;19.10;63.80;;;;;;5030446;28;20032;-49
2023/10/06 09:17:31;;;;;;;4.88;2.47;;;19.10;63.40;;;;;;5057567;28;20035;-53
2023/10/06 09:19:58;;;;;;;5.22;2.47;;;19.10;63.30;;;;;;5061323;28;20690;-46
2023/10/06 09:22:29;;;;;;;5.00;2.50;;;19.00;63.40;;;;;;5056000;28;20128;-50
2023/10/06 09:24:59;;;;;;;4.55;2.30;;;19.10;63.50;;;;;;5053328;28;20036;-56
2023/10/06 09:27:25;;;;;;;4.30;2.03;;;19.10;63.50;;;;;;5048239;28;20035;-50
2023/10/06 09:30:02;;;;;;;3.50;1.77;;;19.10;63.30;;;;;;5056514;28;20032;-49
2023/10/06 09:32:28;;;;;;;4.72;2.30;;;19.10;63.30;;;;;;5060542;28;20156;-52
2023/10/06 09:34:57;;;;;;;5.53;2.40;;;19.10;63.60;;;;;;5066909;28;20147;-46
2023/10/06 09:37:24;;;;;;;4.25;2.00;;;19.00;63.50;;;;;;5060772;28;20036;-53
2023/10/06 09:40:10;;;;;;;4.90;2.70;;;19.00;63.30;;;;;;5074722;28;20032;-52
2023/10/06 09:42:41;;;;;;;3.63;2.38;;;19.00;63.50;;;;;;5049256;28;20123;-53
2023/10/06 09:45:11;;;;;;;5.03;2.78;;;19.10;63.30;;;;;;5056107;28;20688;-49
2023/10/06 09:47:49;;;;;;;7.18;2.80;;;19.10;63.30;;;;;;5063085;22;20533;-50
2023/10/06 09:50:17;;;;;;;4.63;2.55;;;19.00;63.30;;;;;;5038513;28;20086;-47
2023/10/06 09:52:47;;;;;;;4.43;2.22;;;19.10;63.60;;;;;;5041747;28;20048;-46
2023/10/06 09:55:17;;;;;;;5.35;2.30;;;19.00;63.30;;;;;;5036683;28;20052;-47
2023/10/06 09:57:44;;;;;;;4.63;2.63;;;19.10;63.60;;;;;;5040626;28;20055;-47
2023/10/06 10:00:15;;;;;;;6.05;2.70;;;19.10;63.40;;;;;;5042112;28;20037;-47
2023/10/06 10:02:44;;;;;;;5.35;2.70;;;19.00;63.50;;;;;;5046925;28;20112;-50
2023/10/06 10:05:12;;;;;;;7.75;2.53;;;19.00;63.30;;;;;;5039415;28;20037;-48
2023/10/06 10:07:42;;;;;;;3.17;2.13;;;19.00;63.10;;;;;;5028743;28;20044;-48
2023/10/06 10:10:11;;;;;;;4.82;2.40;;;19.00;63.40;;;;;;5021775;28;20048;-46
2023/10/06 10:12:52;;;;;;;5.05;2.40;;;19.00;63.20;;;;;;5040924;28;20051;-47
2023/10/06 10:15:21;;;;;;;4.38;2.00;;;19.00;63.20;;;;;;5045435;28;20215;-46
2023/10/06 10:18:04;;;;;;;4.75;2.50;;;19.00;63.10;;;;;;5045363;28;20025;-48
2023/10/06 10:20:32;;;;;;;3.63;2.00;;;19.00;63.30;;;;;;5040771;28;20063;-47
2023/10/06 10:22:59;;;;;;;3.90;2.17;;;19.00;63.40;;;;;;5043798;28;20116;-47
2023/10/06 10:25:25;;;;;;;4.82;2.38;;;19.00;63.00;;;;;;5042736;28;20112;-50
2023/10/06 10:28:27;;;;;;;4.95;2.35;;;19.00;63.10;;;;;;5040086;28;20119;-47
2023/10/06 10:31:00;;;;;;;3.95;2.25;;;19.00;63.30;;;;;;5044716;28;20099;-46
2023/10/06 10:33:33;;;;;;;4.53;2.03;;;19.00;63.60;;;;;;5046506;28;20079;-47
2023/10/06 10:36:17;;;;;;;4.28;2.05;;;19.00;62.90;;;;;;5048149;28;20733;-48
2023/10/06 10:38:43;;;;;;;3.17;1.73;;;19.00;63.20;;;;;;5042079;28;20037;-46
2023/10/06 10:41:10;;;;;;;4.47;2.20;;;19.00;63.20;;;;;;5039452;28;20138;-46
2023/10/06 10:43:41;;;;;;;4.55;2.22;;;19.00;63.10;;;;;;5042877;28;20131;-46
2023/10/06 10:46:08;;;;;;;3.88;2.40;;;19.00;63.30;;;;;;5039799;28;21044;-49
2023/10/06 10:48:37;;;;;;;3.78;2.00;;;19.00;63.30;;;;;;5037510;28;20045;-47
2023/10/06 10:51:12;;;;;;;3.30;2.15;;;19.00;63.10;;;;;;5041250;28;20029;-46
2023/10/06 10:53:43;;;;;;;5.45;2.10;;;19.00;63.10;;;;;;5047694;28;20029;-47
2023/10/06 10:56:35;;;;;;;2.65;2.00;;;19.00;63.20;;;;;;5046395;28;20123;-48
2023/10/06 10:59:02;;;;;;;4.03;2.38;;;19.00;63.00;;;;;;5046232;28;20119;-48
2023/10/06 11:01:38;;;;;;;4.07;2.40;;;19.00;63.00;;;;;;5047154;28;20166;-47
2023/10/06 11:04:18;;;;;;;3.03;1.90;;;19.00;63.20;;;;;;5051680;28;20040;-47
2023/10/06 11:06:45;;;;;;;3.45;1.77;;;19.00;63.20;;;;;;5047253;28;20524;-47
2023/10/06 11:09:25;;;;;;;4.18;2.65;;;19.00;63.30;;;;;;5026762;28;20509;-48
2023/10/06 11:11:51;;;;;;;3.42;2.00;;;19.00;63.30;;;;;;5025742;28;20029;-48
2023/10/06 11:14:16;;;;;;;4.43;2.60;;;19.00;63.10;;;;;;5048373;28;20414;-50
2023/10/06 11:16:49;;;;;;;3.58;2.05;;;19.00;63.10;;;;;;5042954;28;20151;-47
2023/10/06 11:19:15;;;;;;;3.58;2.40;;;19.00;63.40;;;;;;5042271;28;20094;-47
2023/10/06 11:21:44;;;;;;;2.78;2.10;;;19.00;63.40;;;;;;5048141;28;20044;-47
2023/10/06 11:24:10;;;;;;;5.15;2.50;;;19.00;63.00;;;;;;5047112;28;20567;-48
2023/10/06 11:26:36;;;;;;;3.47;2.15;;;19.00;63.20;;;;;;5048165;28;20064;-48
2023/10/06 11:29:03;;;;;;;3.15;2.00;;;19.00;63.30;;;;;;5044721;28;20032;-47
2023/10/06 11:31:29;;;;;;;5.15;2.38;;;19.00;63.30;;;;;;5051910;28;20439;-46
2023/10/06 11:33:56;;;;;;;4.10;2.45;;;19.00;63.20;;;;;;5051042;28;20073;-48
2023/10/06 11:36:22;;;;;;;3.15;2.13;;;19.00;63.30;;;;;;5050559;28;20508;-46
2023/10/06 11:38:48;;;;;;;3.97;2.35;;;19.00;63.10;;;;;;5038507;28;20025;-46
2023/10/06 11:41:24;;;;;;;3.50;2.05;;;19.00;63.20;;;;;;5040740;28;20394;-48
2023/10/06 11:43:53;;;;;;;;;;;19.00;63.30;;;;;;5048299;28;20481;-46
2023/10/06 11:46:19;;;;;;;3.67;2.30;;;19.00;63.40;;;;;;5045181;28;19975;-46
2023/10/06 11:48:44;;;;;;;4.72;2.50;;;19.10;63.40;;;;;;5046166;28;20130;-47
2023/10/06 11:51:12;;;;;;;3.88;2.10;;;19.00;63.20;;;;;;5046174;28;20034;-48
2023/10/06 11:53:40;;;;;;;3.17;1.95;;;19.00;63.00;;;;;;5048645;28;20029;-49
2023/10/06 11:56:10;;;;;;;2.75;2.00;;;19.00;63.30;;;;;;5046192;28;20040;-46
2023/10/06 11:58:37;;;;;;;4.63;2.50;;;19.00;64.20;;;;;;5047816;28;20150;-49
2023/10/06 12:01:03;;;;;;;6.45;2.90;;;19.00;63.40;;;;;;5035299;28;20044;-49
2023/10/06 12:03:42;;;;;;;3.30;1.88;;;19.00;63.30;;;;;;5034932;28;20028;-48
2023/10/06 12:06:12;;;;;;;4.35;2.60;;;19.00;62.80;;;;;;5018878;28;20502;-52
2023/10/06 12:08:43;;;;;;;4.75;3.08;;;19.00;63.10;;;;;;5024052;28;20028;-52
2023/10/06 12:11:12;;;;;;;3.40;2.15;;;19.00;63.00;;;;;;5043352;28;20041;-47
2023/10/06 12:13:37;;;;;;;4.95;2.63;;;19.00;63.20;;;;;;5028667;28;20638;-47
2023/10/06 12:16:16;;;;;;;4.25;2.42;;;19.00;63.10;;;;;;5044089;28;20058;-46
2023/10/06 12:18:46;;;;;;;4.90;2.25;;;19.00;63.20;;;;;;5047439;28;20111;-49
2023/10/06 12:21:15;;;;;;;4.40;2.38;;;19.00;63.90;;;;;;5017067;28;20047;-46
2023/10/06 12:23:41;;;;;;;2.80;1.67;;;19.00;63.20;;;;;;5047951;28;20040;-51
2023/10/06 12:26:07;;;;;;;3.13;2.10;;;19.00;63.40;;;;;;5043745;28;20665;-50
2023/10/06 12:28:33;;;;;;;3.30;2.17;;;19.00;63.40;;;;;;5051063;28;20029;-54
2023/10/06 12:30:58;;;;;;;3.42;2.47;;;19.00;63.70;;;;;;5054107;28;20033;-50
2023/10/06 12:33:24;;;;;;;3.75;2.30;;;19.00;63.50;;;;;;5052624;28;20035;-51
2023/10/06 12:35:52;;;;;;;4.25;2.38;;;19.00;63.60;;;;;;5045547;28;20041;-52
2023/10/06 12:38:19;;;;;;;4.50;2.25;;;19.00;63.50;;;;;;5044199;28;20052;-52
2023/10/06 12:40:46;;;;;;;4.32;2.08;;;19.10;63.80;;;;;;5045914;28;20405;-55
2023/10/06 12:43:16;;;;;;;2.60;1.88;;;19.10;63.90;;;;;;5029122;28;20028;-51
2023/10/06 12:45:42;;;;;;;3.90;2.13;;;19.10;63.60;;;;;;5047346;28;20033;-47
2023/10/06 12:48:07;;;;;;;4.05;2.38;;;19.10;63.90;;;;;;5045828;28;20040;-47
2023/10/06 12:50:43;;;;;;;4.22;2.17;;;19.10;64.00;;;;;;5045128;28;20028;-48
2023/10/06 12:53:11;;;;;;;4.32;2.38;;;19.10;63.90;;;;;;5044326;28;20056;-52
2023/10/06 12:55:41;;;;;;;4.95;2.35;;;19.10;64.00;;;;;;5044353;28;20697;-52
2023/10/06 12:58:11;;;;;;;3.95;1.95;;;19.10;64.20;;;;;;5048580;28;20418;-53
2023/10/06 13:00:39;;;;;;;3.85;2.08;;;19.10;64.00;;;;;;5047549;28;20559;-50
2023/10/06 13:03:10;;;;;;;5.20;2.55;;;19.10;64.00;;;;;;5052453;28;20178;-49